Hendersonville, Pennsylvania
Current Conditions -  °F | °C
As of 8:16 AM on Friday 19 Dec 2014 (Local Time) from KAGC Reporting Station
Haze Haze  
Wind Chill: 18°   Ceiling: 900
Heat Index: 27°   Visibility: 2.5mi
Dew Point: 23°   Wind: 9mph
Humidity: 85%   Direction: 270°W
Pressure: 30.18"   Gusts: NA
Location:  40.29°N, 80.15°W
Report Text: KAGC 191316Z 27008KT 2 1/2SM BR OVC009 M03/M05 A3018 RMK AO2 CIG 007V012 T10281050
Loading
Personal Weather Stations






























Interactive Weather Map New forecast layout! Learn more

10-Day Weather Forecast

Advertisements
Track Severe Weather on mobile